Time;durP1;ratioP1;P1;durP2;ratioP2;P2;SDS_P1;SDS_P2;PMS_P1;PMS_P2;Temp;Humidity;BMP_temperature;BMP_pressure;BME280_temperature;BME280_humidity;BME280_pressure;Samples;Min_cycle;Max_cycle;Signal;HPM_P1;HPM_P2
2024/01/04 00:00:25;;;;;;;13.33;3.53;;;10.60;99.90;;;;;;5084873;28;20442;-83
2024/01/04 00:02:51;;;;;;;12.67;3.20;;;10.60;99.90;;;;;;5081430;28;20266;-85
2024/01/04 00:05:17;;;;;;;11.27;2.37;;;10.60;99.90;;;;;;5079867;28;20693;-86
2024/01/04 00:07:43;;;;;;;13.37;3.47;;;10.60;99.90;;;;;;5085488;28;20179;-84
2024/01/04 00:10:09;;;;;;;10.53;2.87;;;10.70;99.90;;;;;;5079578;28;20173;-82
2024/01/04 00:12:35;;;;;;;7.67;2.77;;;10.70;99.90;;;;;;5080308;28;20258;-82
2024/01/04 00:15:03;;;;;;;10.37;2.90;;;10.60;99.90;;;;;;5081043;28;20179;-86
2024/01/04 00:17:29;;;;;;;10.70;3.03;;;10.70;99.90;;;;;;5079492;28;20204;-87
2024/01/04 00:19:55;;;;;;;8.93;2.97;;;10.70;99.90;;;;;;5083134;28;20294;-84
2024/01/04 00:22:21;;;;;;;9.03;2.37;;;10.70;99.90;;;;;;5079881;28;20266;-83
2024/01/04 00:24:46;;;;;;;10.57;2.63;;;10.70;99.90;;;;;;5072627;28;20207;-83
2024/01/04 00:27:12;;;;;;;12.67;3.30;;;10.70;99.90;;;;;;5073993;28;20172;-84
2024/01/04 00:29:38;;;;;;;12.80;2.73;;;10.60;99.90;;;;;;5074350;28;20221;-83
2024/01/04 00:32:04;;;;;;;12.23;3.10;;;10.70;99.90;;;;;;5073648;28;20179;-84
2024/01/04 00:34:29;;;;;;;9.50;2.77;;;10.70;99.90;;;;;;5075969;28;20267;-82
2024/01/04 00:36:57;;;;;;;8.63;2.83;;;10.60;99.90;;;;;;5074730;28;20636;-83
2024/01/04 00:39:24;;;;;;;15.53;3.03;;;10.70;99.90;;;;;;5073963;28;20178;-83
2024/01/04 00:41:53;;;;;;;7.50;2.63;;;10.60;99.90;;;;;;5072762;28;20271;-84
2024/01/04 00:44:19;;;;;;;13.10;3.03;;;10.60;99.90;;;;;;5073876;28;20663;-82
2024/01/04 00:46:45;;;;;;;10.57;3.30;;;10.60;99.90;;;;;;5074127;28;20187;-83
2024/01/04 00:49:11;;;;;;;5.70;2.60;;;10.60;99.90;;;;;;5074207;28;20168;-83
2024/01/04 00:51:37;;;;;;;12.20;2.80;;;10.60;99.90;;;;;;5074299;28;20582;-83
2024/01/04 00:54:03;;;;;;;10.93;2.70;;;10.60;99.90;;;;;;5073409;28;20711;-82
2024/01/04 00:56:33;;;;;;;14.60;3.23;;;10.60;99.90;;;;;;5075641;28;20176;-83
2024/01/04 00:59:02;;;;;;;10.17;2.80;;;10.60;99.90;;;;;;5074130;28;20181;-82
2024/01/04 01:01:30;;;;;;;9.67;2.77;;;10.60;99.90;;;;;;5074540;28;20208;-82
2024/01/04 01:03:57;;;;;;;15.30;3.20;;;10.70;99.90;;;;;;5074235;28;20179;-84
2024/01/04 01:06:23;;;;;;;7.23;2.33;;;10.70;99.90;;;;;;5074326;28;20176;-83
2024/01/04 01:08:48;;;;;;;7.93;2.37;;;10.70;99.90;;;;;;5073512;28;20541;-83
2024/01/04 01:11:14;;;;;;;9.03;2.87;;;10.60;99.90;;;;;;5073490;28;20172;-84
2024/01/04 01:13:40;;;;;;;10.00;2.83;;;10.60;99.90;;;;;;5073525;28;20219;-83
2024/01/04 01:16:06;;;;;;;11.47;3.00;;;10.60;99.90;;;;;;5074227;28;20173;-83
2024/01/04 01:18:31;;;;;;;13.43;2.60;;;10.60;99.90;;;;;;5073505;28;20688;-84
2024/01/04 01:21:02;;;;;;;7.43;1.93;;;10.60;99.90;;;;;;5073900;28;20265;-82
2024/01/04 01:23:28;;;;;;;6.67;2.90;;;10.50;99.90;;;;;;5073396;28;20265;-82
2024/01/04 01:25:53;;;;;;;9.97;2.70;;;10.50;99.90;;;;;;5073714;28;20266;-82
2024/01/04 01:28:19;;;;;;;14.20;2.77;;;10.60;99.90;;;;;;5072818;28;20168;-82
2024/01/04 01:30:45;;;;;;;14.53;2.73;;;10.60;99.90;;;;;;5073724;28;20176;-82
2024/01/04 01:33:11;;;;;;;10.97;2.60;;;10.60;99.90;;;;;;5071472;28;20632;-82
2024/01/04 01:35:36;;;;;;;7.67;2.13;;;10.50;99.90;;;;;;5073776;28;20242;-83
2024/01/04 01:38:02;;;;;;;7.80;2.40;;;10.60;99.90;;;;;;5073514;28;20598;-83
2024/01/04 01:40:28;;;;;;;7.90;2.53;;;10.60;99.90;;;;;;5073433;28;20204;-84
2024/01/04 01:42:54;;;;;;;8.77;2.70;;;10.60;99.90;;;;;;5073109;28;20624;-83
2024/01/04 01:45:20;;;;;;;8.83;2.30;;;10.60;99.90;;;;;;5072854;28;20259;-82
2024/01/04 01:47:47;;;;;;;10.27;2.73;;;10.60;99.90;;;;;;5073016;28;20165;-83
2024/01/04 01:50:14;;;;;;;10.90;2.33;;;10.70;99.90;;;;;;5071641;28;20628;-82
2024/01/04 01:52:41;;;;;;;12.03;2.70;;;10.60;99.90;;;;;;5072613;28;20466;-82
2024/01/04 01:55:09;;;;;;;6.13;1.80;;;10.60;99.90;;;;;;5072651;28;20174;-82
2024/01/04 01:57:35;;;;;;;5.60;2.03;;;10.60;99.90;;;;;;5072918;28;20192;-83
2024/01/04 02:00:02;;;;;;;9.93;2.20;;;10.60;99.90;;;;;;5073152;28;20208;-82
2024/01/04 02:02:28;;;;;;;12.77;2.57;;;10.50;99.90;;;;;;5072056;28;20179;-83
2024/01/04 02:04:54;;;;;;;7.13;2.30;;;10.50;99.90;;;;;;5073128;28;20168;-83
2024/01/04 02:07:20;;;;;;;7.80;2.27;;;10.60;99.90;;;;;;5072187;28;20203;-83
2024/01/04 02:09:46;;;;;;;7.17;2.47;;;10.60;99.90;;;;;;5071557;28;20187;-84
2024/01/04 02:12:13;;;;;;;10.27;2.60;;;10.60;99.90;;;;;;5072947;28;20180;-82
2024/01/04 02:14:39;;;;;;;7.00;2.33;;;10.60;99.90;;;;;;5072610;28;20225;-83
2024/01/04 02:17:05;;;;;;;8.13;1.83;;;10.60;99.90;;;;;;5072761;28;20259;-82
2024/01/04 02:19:32;;;;;;;6.87;2.30;;;10.60;99.90;;;;;;5071715;28;20175;-82
2024/01/04 02:21:58;;;;;;;9.97;2.67;;;10.60;99.90;;;;;;5071955;28;20181;-82
2024/01/04 02:24:24;;;;;;;7.50;2.73;;;10.60;99.90;;;;;;5072603;28;20197;-82
2024/01/04 02:26:49;;;;;;;8.40;2.97;;;10.60;99.90;;;;;;5072407;28;20172;-82
2024/01/04 02:29:15;;;;;;;8.57;2.83;;;10.50;99.90;;;;;;5073576;28;20644;-84
2024/01/04 02:31:43;;;;;;;6.27;2.33;;;10.40;99.90;;;;;;5072391;28;20174;-82
2024/01/04 02:34:09;;;;;;;7.93;2.60;;;10.40;99.90;;;;;;5070753;28;20184;-83
2024/01/04 02:36:34;;;;;;;7.30;2.37;;;10.40;99.90;;;;;;5072128;28;20172;-82
2024/01/04 02:39:00;;;;;;;8.17;2.63;;;10.40;99.90;;;;;;5072279;28;20637;-82
2024/01/04 02:41:26;;;;;;;6.67;2.60;;;10.40;99.90;;;;;;5072163;28;20212;-82
2024/01/04 02:43:51;;;;;;;8.43;2.63;;;10.40;99.90;;;;;;5072395;28;20575;-81
2024/01/04 02:46:17;;;;;;;7.10;2.30;;;10.40;99.90;;;;;;5071747;28;20200;-82
2024/01/04 02:48:42;;;;;;;9.50;2.33;;;10.40;99.90;;;;;;5072071;28;20175;-81
2024/01/04 02:51:08;;;;;;;8.53;2.30;;;10.40;99.90;;;;;;5071772;28;20525;-82
2024/01/04 02:53:35;;;;;;;10.97;2.63;;;10.30;99.90;;;;;;5075715;28;20172;-82
2024/01/04 02:56:01;;;;;;;9.43;2.30;;;10.30;99.90;;;;;;5082408;28;20656;-82
2024/01/04 02:58:27;;;;;;;6.30;2.20;;;10.40;99.90;;;;;;5084592;28;20218;-82
2024/01/04 03:00:53;;;;;;;5.97;2.00;;;10.50;99.90;;;;;;5074216;28;20265;-83
2024/01/04 03:03:18;;;;;;;7.33;2.10;;;10.40;99.90;;;;;;5071423;28;20168;-83
2024/01/04 03:05:44;;;;;;;5.23;1.80;;;10.40;99.90;;;;;;5071971;28;20191;-81
2024/01/04 03:08:10;;;;;;;7.47;2.27;;;10.40;99.90;;;;;;5072081;28;20218;-81
2024/01/04 03:10:36;;;;;;;6.13;1.90;;;10.40;99.90;;;;;;5071076;28;20218;-83
2024/01/04 03:13:03;;;;;;;5.30;1.80;;;10.40;99.90;;;;;;5071924;28;20193;-82
2024/01/04 03:15:29;;;;;;;5.67;1.80;;;10.40;99.90;;;;;;5070159;28;20180;-83
2024/01/04 03:17:54;;;;;;;6.47;2.17;;;10.40;99.90;;;;;;5070557;28;20221;-83
2024/01/04 03:20:20;;;;;;;8.13;1.97;;;10.40;99.90;;;;;;5071717;28;20594;-82
2024/01/04 03:22:46;;;;;;;6.53;2.27;;;10.40;99.90;;;;;;5070901;28;20179;-82
2024/01/04 03:25:12;;;;;;;7.03;2.10;;;10.40;99.90;;;;;;5071699;28;20196;-82
2024/01/04 03:27:38;;;;;;;9.27;2.30;;;10.50;99.90;;;;;;5071314;28;20179;-83
2024/01/04 03:30:05;;;;;;;8.27;2.30;;;10.50;99.90;;;;;;5070761;28;20172;-82
2024/01/04 03:32:31;;;;;;;7.70;2.17;;;10.50;99.90;;;;;;5071268;28;20261;-82
2024/01/04 03:34:57;;;;;;;7.83;2.23;;;10.60;99.90;;;;;;5071796;28;20195;-82
2024/01/04 03:37:22;;;;;;;7.33;2.20;;;10.50;99.90;;;;;;5071464;28;20266;-82
2024/01/04 03:39:49;;;;;;;9.97;2.23;;;10.50;99.90;;;;;;5070459;28;20569;-82
2024/01/04 03:42:15;;;;;;;7.57;2.07;;;10.50;99.90;;;;;;5071437;28;20172;-82
2024/01/04 03:44:42;;;;;;;7.07;2.20;;;10.50;99.90;;;;;;5071446;28;20234;-83
2024/01/04 03:47:08;;;;;;;9.63;2.30;;;10.50;99.90;;;;;;5071243;28;20190;-82
2024/01/04 03:49:34;;;;;;;6.13;2.07;;;10.50;99.90;;;;;;5070884;28;20711;-82
2024/01/04 03:51:59;;;;;;;8.73;2.20;;;10.50;99.90;;;;;;5070863;28;20167;-82
2024/01/04 03:54:25;;;;;;;7.60;2.57;;;10.50;99.90;;;;;;5070770;28;20230;-83
2024/01/04 03:56:52;;;;;;;11.90;3.13;;;10.40;99.90;;;;;;5073690;28;20632;-82
2024/01/04 03:59:17;;;;;;;7.97;2.20;;;10.50;99.90;;;;;;5074646;28;20172;-82
2024/01/04 04:01:47;;;;;;;5.77;1.70;;;10.50;99.90;;;;;;5076616;28;20571;-82
2024/01/04 04:04:13;;;;;;;5.47;2.00;;;10.50;99.90;;;;;;5075310;28;20172;-80
2024/01/04 04:06:39;;;;;;;6.27;2.00;;;10.50;99.90;;;;;;5075862;28;20184;-82
2024/01/04 04:09:07;;;;;;;7.33;1.93;;;10.30;99.90;;;;;;5074931;28;20183;-83
2024/01/04 04:11:33;;;;;;;7.47;2.10;;;10.40;99.90;;;;;;5075105;28;20175;-82
2024/01/04 04:13:59;;;;;;;7.03;2.07;;;10.40;99.90;;;;;;5074093;28;20173;-82
2024/01/04 04:16:25;;;;;;;6.90;1.80;;;10.40;99.90;;;;;;5074618;28;20179;-82
2024/01/04 04:18:51;;;;;;;6.67;1.57;;;10.40;99.90;;;;;;5075333;28;20172;-83
2024/01/04 04:21:20;;;;;;;4.47;1.27;;;10.40;99.90;;;;;;5075911;28;20283;-81
2024/01/04 04:23:49;;;;;;;8.43;2.00;;;10.40;99.90;;;;;;5073973;28;20187;-82
2024/01/04 04:26:19;;;;;;;7.73;2.07;;;10.40;99.90;;;;;;5075686;28;20192;-82
2024/01/04 04:28:44;;;;;;;5.90;1.53;;;10.40;99.90;;;;;;5074757;28;20543;-82
2024/01/04 04:31:14;;;;;;;7.07;1.87;;;10.50;99.90;;;;;;5074541;28;20168;-83
2024/01/04 04:33:40;;;;;;;9.23;2.30;;;10.50;99.90;;;;;;5074153;28;20164;-82
2024/01/04 04:36:06;;;;;;;3.33;1.60;;;10.50;99.90;;;;;;5074609;28;20245;-83
2024/01/04 04:38:34;;;;;;;10.10;2.07;;;10.60;99.90;;;;;;5074150;28;20191;-83
2024/01/04 04:41:00;;;;;;;5.70;1.90;;;10.50;99.90;;;;;;5075211;28;20258;-82
2024/01/04 04:43:26;;;;;;;8.17;2.63;;;10.50;99.90;;;;;;5074367;28;20269;-82
2024/01/04 04:45:52;;;;;;;8.60;2.30;;;10.60;99.90;;;;;;5075819;28;20211;-82
2024/01/04 04:48:17;;;;;;;7.93;2.33;;;10.60;99.90;;;;;;5095380;28;20171;-82
2024/01/04 04:50:43;;;;;;;8.43;2.87;;;10.50;99.90;;;;;;5093916;28;20179;-82
2024/01/04 04:53:09;;;;;;;4.93;1.53;;;10.50;99.90;;;;;;5093712;28;20628;-83
2024/01/04 04:55:34;;;;;;;2.77;1.60;;;10.40;99.90;;;;;;5094641;28;20226;-82
2024/01/04 04:58:00;;;;;;;4.73;1.67;;;10.40;99.90;;;;;;5094311;28;20624;-82
2024/01/04 05:00:26;;;;;;;6.10;1.50;;;10.40;99.90;;;;;;5093486;28;20671;-83
2024/01/04 05:02:51;;;;;;;6.63;1.90;;;10.40;99.90;;;;;;5093481;28;20250;-82
2024/01/04 05:05:17;;;;;;;6.10;2.30;;;10.40;99.90;;;;;;5094789;28;20171;-82
2024/01/04 05:07:42;;;;;;;4.70;1.60;;;10.40;99.90;;;;;;5093669;28;20164;-83
2024/01/04 05:10:08;;;;;;;8.80;1.90;;;10.40;99.90;;;;;;5093208;28;20640;-83
2024/01/04 05:12:34;;;;;;;6.47;1.73;;;10.40;99.90;;;;;;5095340;28;20248;-83
2024/01/04 05:15:00;;;;;;;10.53;1.97;;;10.40;99.90;;;;;;5093611;28;20639;-83
2024/01/04 05:17:25;;;;;;;6.00;2.10;;;10.40;99.90;;;;;;5093502;28;20172;-83
2024/01/04 05:19:51;;;;;;;6.30;1.77;;;10.40;99.90;;;;;;5093708;28;20203;-83
2024/01/04 05:22:18;;;;;;;5.67;1.80;;;10.40;99.90;;;;;;5094226;28;20163;-83
2024/01/04 05:24:43;;;;;;;6.67;1.60;;;10.40;99.90;;;;;;5094364;28;20256;-82
2024/01/04 05:27:09;;;;;;;5.93;1.70;;;10.40;99.90;;;;;;5093905;28;20202;-83
2024/01/04 05:29:35;;;;;;;5.30;1.83;;;10.40;99.90;;;;;;5093570;28;20175;-82
2024/01/04 05:32:02;;;;;;;6.10;2.00;;;10.40;99.90;;;;;;5093981;28;20171;-82
2024/01/04 05:34:32;;;;;;;7.23;2.13;;;10.40;99.90;;;;;;5094482;28;20160;-83
2024/01/04 05:36:58;;;;;;;7.27;2.43;;;10.40;99.90;;;;;;5093190;28;20526;-82
2024/01/04 05:39:25;;;;;;;5.17;2.00;;;10.50;99.90;;;;;;5093585;28;20190;-82
2024/01/04 05:41:51;;;;;;;6.40;1.90;;;10.40;99.90;;;;;;5093508;28;20298;-84
2024/01/04 05:44:17;;;;;;;10.30;2.57;;;10.40;99.90;;;;;;5093520;28;20564;-82
2024/01/04 05:46:42;;;;;;;5.63;1.93;;;10.40;99.90;;;;;;5092764;28;20237;-82
2024/01/04 05:49:08;;;;;;;7.77;1.97;;;10.40;99.90;;;;;;5093241;28;20171;-82
2024/01/04 05:51:34;;;;;;;8.20;2.10;;;10.50;99.90;;;;;;5093420;28;20666;-81
2024/01/04 05:54:02;;;;;;;7.30;2.23;;;10.60;99.90;;;;;;5093449;28;20180;-82
2024/01/04 05:56:28;;;;;;;10.70;2.80;;;10.60;99.90;;;;;;5092231;28;20274;-82
2024/01/04 05:58:53;;;;;;;8.27;2.30;;;10.60;99.90;;;;;;5092350;28;20225;-82
2024/01/04 06:01:19;;;;;;;8.77;2.20;;;10.50;99.90;;;;;;5093666;28;20207;-83
2024/01/04 06:03:45;;;;;;;8.30;2.33;;;10.50;99.90;;;;;;5093259;28;20176;-84
2024/01/04 06:06:14;;;;;;;5.87;1.70;;;10.40;99.90;;;;;;5094300;28;20196;-83
2024/01/04 06:08:41;;;;;;;6.17;2.13;;;10.40;99.90;;;;;;5092701;28;20548;-82
2024/01/04 06:11:07;;;;;;;7.70;1.87;;;10.40;99.90;;;;;;5091582;28;20254;-82
2024/01/04 06:13:33;;;;;;;11.13;2.37;;;10.40;99.90;;;;;;5092657;28;20324;-83
2024/01/04 06:16:03;;;;;;;10.70;2.47;;;10.40;99.90;;;;;;5092984;28;20707;-84
2024/01/04 06:18:29;;;;;;;9.13;2.43;;;10.30;99.90;;;;;;5093647;28;20167;-82
2024/01/04 06:20:54;;;;;;;8.90;2.20;;;10.30;99.90;;;;;;5092186;28;20722;-83
2024/01/04 06:23:20;;;;;;;11.33;2.20;;;10.30;99.90;;;;;;5092646;28;20580;-83
2024/01/04 06:25:46;;;;;;;11.70;3.00;;;10.30;99.90;;;;;;5091457;28;20195;-84
2024/01/04 06:28:12;;;;;;;9.90;3.23;;;10.30;99.90;;;;;;5091512;28;20643;-83
2024/01/04 06:30:38;;;;;;;8.97;2.63;;;10.20;99.90;;;;;;5092402;28;20179;-82
2024/01/04 06:33:04;;;;;;;10.53;3.23;;;10.30;99.90;;;;;;5091677;28;20832;-83
2024/01/04 06:35:29;;;;;;;10.20;2.67;;;10.20;99.90;;;;;;5092144;28;20631;-83
2024/01/04 06:37:55;;;;;;;10.40;2.53;;;10.20;99.90;;;;;;5092672;28;20176;-83
2024/01/04 06:40:21;;;;;;;9.10;2.50;;;10.30;99.90;;;;;;5091730;28;20667;-82
2024/01/04 06:42:54;;;;;;;12.47;2.83;;;10.30;99.90;;;;;;5092130;28;20176;-83
2024/01/04 06:45:21;;;;;;;7.43;2.13;;;10.30;99.90;;;;;;5092289;28;20172;-83
2024/01/04 06:47:46;;;;;;;9.07;3.07;;;10.50;99.90;;;;;;5092427;28;20270;-82
2024/01/04 06:50:12;;;;;;;13.53;2.60;;;10.40;99.90;;;;;;5092247;28;20255;-86
2024/01/04 06:52:38;;;;;;;9.60;3.10;;;10.40;99.90;;;;;;5091270;28;20584;-82
2024/01/04 06:55:04;;;;;;;9.83;3.00;;;10.40;99.90;;;;;;5092547;28;20171;-82
2024/01/04 06:57:30;;;;;;;8.30;3.07;;;10.30;99.90;;;;;;5091722;28;20655;-82
2024/01/04 06:59:55;;;;;;;9.30;3.10;;;10.20;99.90;;;;;;5091242;28;20210;-83
2024/01/04 07:02:21;;;;;;;12.97;3.23;;;10.30;99.90;;;;;;5092225;28;20168;-82
2024/01/04 07:04:47;;;;;;;10.33;3.57;;;10.30;99.90;;;;;;5091479;28;20175;-83
2024/01/04 07:07:12;;;;;;;9.97;2.83;;;10.30;99.90;;;;;;5091781;28;20535;-83
2024/01/04 07:09:38;;;;;;;10.60;2.90;;;10.30;99.90;;;;;;5092667;28;20264;-82
2024/01/04 07:12:05;;;;;;;10.37;3.37;;;10.30;99.90;;;;;;5091681;28;20167;-82
2024/01/04 07:14:31;;;;;;;9.87;3.27;;;10.30;99.90;;;;;;5093221;28;20562;-83
2024/01/04 07:16:57;;;;;;;9.03;3.10;;;10.20;99.90;;;;;;5089700;28;20218;-82
2024/01/04 07:19:23;;;;;;;9.07;3.20;;;10.20;99.90;;;;;;5088879;28;20171;-82
2024/01/04 07:21:49;;;;;;;7.50;3.03;;;10.20;99.90;;;;;;5090870;28;20734;-82
2024/01/04 07:24:16;;;;;;;6.03;2.40;;;10.20;99.90;;;;;;5092806;28;20181;-82
2024/01/04 07:26:41;;;;;;;4.60;2.50;;;10.10;99.90;;;;;;5092015;28;20168;-84
2024/01/04 07:29:07;;;;;;;5.67;2.30;;;10.00;99.90;;;;;;5090890;28;20592;-83
2024/01/04 07:31:33;;;;;;;8.03;2.50;;;10.00;99.90;;;;;;5090294;28;20175;-83
2024/01/04 07:34:00;;;;;;;8.47;2.57;;;10.00;99.90;;;;;;5091533;28;20504;-83
2024/01/04 07:36:26;;;;;;;7.23;2.00;;;10.10;99.90;;;;;;5091415;28;20175;-84
2024/01/04 07:38:51;;;;;;;7.23;2.77;;;10.00;99.90;;;;;;5090937;28;20172;-84
2024/01/04 07:41:17;;;;;;;9.73;2.40;;;10.10;99.90;;;;;;5091668;28;20260;-85
2024/01/04 07:43:43;;;;;;;10.83;2.70;;;10.10;99.90;;;;;;5091200;28;20175;-82
2024/01/04 07:46:08;;;;;;;7.77;2.80;;;10.10;99.90;;;;;;5091605;28;20171;-83
2024/01/04 07:48:34;;;;;;;7.67;2.57;;;10.10;99.90;;;;;;5090593;28;20264;-83
2024/01/04 07:51:00;;;;;;;6.20;2.50;;;10.10;99.90;;;;;;5091711;28;20171;-85
2024/01/04 07:53:26;;;;;;;10.17;3.40;;;10.10;99.90;;;;;;5091140;28;20178;-85
2024/01/04 07:55:51;;;;;;;6.00;2.33;;;10.10;99.90;;;;;;5092176;28;20535;-85
2024/01/04 07:58:17;;;;;;;10.07;3.37;;;10.00;99.90;;;;;;5096821;28;20199;-83
2024/01/04 08:00:42;;;;;;;13.07;3.80;;;10.10;99.90;;;;;;5093211;28;20207;-82
2024/01/04 08:03:08;;;;;;;12.10;3.70;;;10.00;99.90;;;;;;5090760;28;20258;-83
2024/01/04 08:05:34;;;;;;;12.50;3.60;;;10.00;99.90;;;;;;5091654;28;20176;-83
2024/01/04 08:07:59;;;;;;;14.03;3.97;;;10.00;99.90;;;;;;5091985;28;20184;-81
2024/01/04 08:10:26;;;;;;;17.57;4.40;;;10.00;99.90;;;;;;5101284;28;20184;-82
2024/01/04 08:12:51;;;;;;;18.83;3.93;;;9.90;99.90;;;;;;5094794;28;20251;-83
2024/01/04 08:15:17;;;;;;;16.57;4.40;;;10.00;99.90;;;;;;5091648;28;20602;-82
2024/01/04 08:17:43;;;;;;;17.47;4.03;;;10.00;99.90;;;;;;5090291;28;20171;-83
2024/01/04 08:20:09;;;;;;;16.70;4.73;;;10.00;99.90;;;;;;5091199;28;20192;-83
2024/01/04 08:22:35;;;;;;;18.10;4.60;;;10.00;99.90;;;;;;5092267;28;20275;-84
2024/01/04 08:25:00;;;;;;;18.07;4.53;;;10.00;99.90;;;;;;5090782;28;20310;-82
2024/01/04 08:27:26;;;;;;;19.93;5.30;;;10.10;99.90;;;;;;5090420;28;20604;-83
2024/01/04 08:29:52;;;;;;;18.33;4.10;;;10.00;99.90;;;;;;5091107;28;20168;-83
2024/01/04 08:32:17;;;;;;;15.07;4.47;;;9.90;99.90;;;;;;5090986;28;20524;-82
2024/01/04 08:34:43;;;;;;;20.10;5.50;;;9.90;99.90;;;;;;5089846;28;20266;-82
2024/01/04 08:37:10;;;;;;;17.27;4.73;;;9.90;99.90;;;;;;5091845;28;20175;-83
2024/01/04 08:39:35;;;;;;;16.37;4.33;;;9.90;99.90;;;;;;5090215;28;20259;-81
2024/01/04 08:42:01;;;;;;;21.47;4.73;;;9.90;99.90;;;;;;5090772;28;20696;-81
2024/01/04 08:44:27;;;;;;;24.17;4.90;;;9.80;99.90;;;;;;5094587;28;20197;-81
2024/01/04 08:46:53;;;;;;;19.43;4.37;;;9.90;99.90;;;;;;5093737;28;20624;-83
2024/01/04 08:49:19;;;;;;;16.80;3.97;;;9.80;99.90;;;;;;5095656;28;20169;-84
2024/01/04 08:51:44;;;;;;;14.87;4.30;;;9.80;99.90;;;;;;5094500;28;20176;-83
2024/01/04 08:54:10;;;;;;;19.17;4.73;;;9.70;99.90;;;;;;5093223;28;20171;-82
2024/01/04 08:56:36;;;;;;;23.97;5.80;;;9.60;99.90;;;;;;5094880;28;20202;-81
2024/01/04 08:59:03;;;;;;;22.33;5.10;;;9.70;99.90;;;;;;5094778;28;20198;-83
2024/01/04 09:01:29;;;;;;;19.63;5.00;;;9.60;99.90;;;;;;5093789;28;20335;-82
2024/01/04 09:03:56;;;;;;;26.17;5.20;;;9.60;99.90;;;;;;5093561;28;20180;-83
2024/01/04 09:06:22;;;;;;;21.73;5.13;;;9.70;99.90;;;;;;5094148;28;20570;-83
2024/01/04 09:08:48;;;;;;;18.40;4.83;;;9.70;99.90;;;;;;5094117;28;20168;-83
2024/01/04 09:11:16;;;;;;;25.97;6.63;;;9.70;99.90;;;;;;5094491;28;20179;-83
2024/01/04 09:13:45;;;;;;;23.33;5.13;;;9.60;99.90;;;;;;5093492;28;20658;-85
2024/01/04 09:16:11;;;;;;;21.13;4.60;;;9.60;99.90;;;;;;5093436;28;20176;-84
2024/01/04 09:18:38;;;;;;;14.50;4.20;;;9.60;99.90;;;;;;5093519;28;20248;-85
2024/01/04 09:21:04;;;;;;;18.30;4.90;;;9.50;99.90;;;;;;5093507;28;20200;-86
2024/01/04 09:23:30;;;;;;;23.80;5.03;;;9.50;99.90;;;;;;5093986;28;20168;-84
2024/01/04 09:25:56;;;;;;;20.47;4.83;;;9.50;99.90;;;;;;5094211;28;20290;-85
2024/01/04 09:28:24;;;;;;;20.03;5.97;;;9.60;99.90;;;;;;5094437;28;20171;-83
2024/01/04 09:30:50;;;;;;;18.73;4.60;;;9.50;99.90;;;;;;5093430;28;20168;-84
2024/01/04 09:33:16;;;;;;;18.87;4.50;;;9.50;99.90;;;;;;5091581;28;20176;-83
2024/01/04 09:35:42;;;;;;;20.03;4.60;;;9.50;99.90;;;;;;5074569;28;20219;-84
2024/01/04 09:38:07;;;;;;;23.07;5.53;;;9.50;99.90;;;;;;5073021;28;20180;-83
2024/01/04 09:40:33;;;;;;;24.20;5.13;;;9.50;99.90;;;;;;5072648;28;20680;-84
2024/01/04 09:43:00;;;;;;;25.10;6.33;;;9.60;99.90;;;;;;5073114;28;20177;-83
2024/01/04 09:45:28;;;;;;;23.40;5.80;;;9.60;99.90;;;;;;5075518;28;20197;-86
2024/01/04 09:47:59;;;;;;;24.33;5.40;;;9.60;99.90;;;;;;5088668;28;20213;-85
2024/01/04 09:50:25;;;;;;;22.17;4.53;;;9.70;99.90;;;;;;5092433;28;20163;-85
2024/01/04 09:52:56;;;;;;;18.67;4.27;;;9.70;99.90;;;;;;5092899;28;20249;-83
2024/01/04 09:55:23;;;;;;;22.40;5.20;;;9.70;99.90;;;;;;5092578;28;20203;-83
2024/01/04 09:57:49;;;;;;;19.77;5.00;;;9.70;99.90;;;;;;5093425;28;20187;-84
2024/01/04 10:00:15;;;;;;;19.17;4.20;;;9.70;99.90;;;;;;5092864;28;20199;-84
2024/01/04 10:02:45;;;;;;;23.83;4.67;;;9.70;99.90;;;;;;5094460;28;20175;-84
2024/01/04 10:05:15;;;;;;;21.70;4.47;;;9.80;99.90;;;;;;5094698;28;20178;-84
2024/01/04 10:07:53;;;;;;;16.53;3.70;;;9.80;99.90;;;;;;5097163;28;20650;-83
2024/01/04 10:10:23;;;;;;;12.87;3.60;;;9.90;99.90;;;;;;5085706;28;20191;-83
2024/01/04 10:12:51;;;;;;;17.93;5.17;;;9.90;99.90;;;;;;5073866;28;20660;-85
2024/01/04 10:15:17;;;;;;;19.47;5.13;;;10.00;99.90;;;;;;5072603;28;20247;-84
2024/01/04 10:17:45;;;;;;;15.43;4.23;;;10.10;99.90;;;;;;5072579;28;20173;-82
2024/01/04 10:20:11;;;;;;;18.23;3.90;;;10.10;99.90;;;;;;5072230;28;20208;-83
2024/01/04 10:22:37;;;;;;;20.80;4.70;;;10.10;99.90;;;;;;5074043;28;20212;-83
2024/01/04 10:25:07;;;;;;;17.97;4.40;;;10.10;99.90;;;;;;5073226;28;20196;-82
2024/01/04 10:27:33;;;;;;;15.10;4.37;;;10.10;99.90;;;;;;5072837;28;20222;-85
2024/01/04 10:30:06;;;;;;;15.07;3.70;;;10.20;99.90;;;;;;5072395;28;20176;-84
2024/01/04 10:32:32;;;;;;;16.53;3.67;;;10.20;99.90;;;;;;5073338;28;20176;-83
2024/01/04 10:35:08;;;;;;;13.30;3.63;;;10.20;99.90;;;;;;5072121;28;20176;-83
2024/01/04 10:37:35;;;;;;;16.67;3.93;;;10.20;99.40;;;;;;5072363;28;20207;-84
2024/01/04 10:40:05;;;;;;;15.30;4.83;;;10.20;99.70;;;;;;5073228;28;20228;-83
2024/01/04 10:42:32;;;;;;;16.83;4.57;;;10.20;99.90;;;;;;5072518;28;20187;-83
2024/01/04 10:44:59;;;;;;;16.00;4.47;;;10.30;99.90;;;;;;5072237;28;20221;-83
2024/01/04 10:47:25;;;;;;;15.53;3.97;;;10.30;99.90;;;;;;5078090;28;20184;-84
2024/01/04 10:49:58;;;;;;;16.00;3.63;;;10.40;98.70;;;;;;5092601;28;20175;-83
2024/01/04 10:52:30;;;;;;;14.53;3.67;;;10.40;96.70;;;;;;5092508;28;20179;-82
2024/01/04 10:54:58;;;;;;;15.70;3.87;;;10.30;98.20;;;;;;5092266;28;20172;-82
2024/01/04 10:57:25;;;;;;;25.20;5.07;;;10.30;97.60;;;;;;5092073;28;20643;-84
2024/01/04 10:59:52;;;;;;;15.00;3.43;;;10.30;98.50;;;;;;5092160;28;20171;-84
2024/01/04 11:02:19;;;;;;;17.50;4.47;;;10.40;97.70;;;;;;5093193;28;20184;-83
2024/01/04 11:04:45;;;;;;;18.47;4.20;;;10.40;99.20;;;;;;5092027;28;20641;-83
2024/01/04 11:07:14;;;;;;;16.67;4.23;;;10.40;97.50;;;;;;5092024;28;20183;-84
2024/01/04 11:09:40;;;;;;;17.03;3.73;;;10.30;97.70;;;;;;5091740;28;20539;-84
2024/01/04 11:12:08;;;;;;;15.00;3.87;;;10.30;99.80;;;;;;5092086;28;20244;-84
2024/01/04 11:14:34;;;;;;;13.73;3.63;;;10.30;98.20;;;;;;5091885;28;20599;-84
2024/01/04 11:17:29;;;;;;;15.33;3.93;;;10.30;98.10;;;;;;5092780;28;20207;-84
2024/01/04 11:20:08;;;;;;;14.97;3.80;;;10.40;98.10;;;;;;5091635;28;20539;-83
2024/01/04 11:22:58;;;;;;;17.00;4.10;;;10.40;98.20;;;;;;5091672;28;20586;-83
2024/01/04 11:25:37;;;;;;;12.97;3.97;;;10.50;97.60;;;;;;5095582;28;20184;-83
2024/01/04 11:28:06;;;;;;;13.73;3.23;;;10.60;96.50;;;;;;5096810;28;20167;-82
2024/01/04 11:30:32;;;;;;;15.17;4.00;;;10.60;93.70;;;;;;5097943;28;20179;-84
2024/01/04 11:32:59;;;;;;;17.07;3.90;;;10.70;96.00;;;;;;5096232;28;20175;-83
2024/01/04 11:35:25;;;;;;;15.27;3.47;;;10.70;94.00;;;;;;5091763;28;20172;-84
2024/01/04 11:37:51;;;;;;;15.27;4.63;;;10.70;93.00;;;;;;5091569;28;20175;-82
2024/01/04 11:40:29;;;;;;;21.13;4.90;;;10.80;92.40;;;;;;5092854;28;20195;-83
2024/01/04 11:42:56;;;;;;;20.33;4.40;;;10.70;93.20;;;;;;5092626;28;20171;-82
2024/01/04 11:45:24;;;;;;;15.23;3.63;;;10.80;91.80;;;;;;5091437;28;20164;-84
2024/01/04 11:47:51;;;;;;;14.43;4.20;;;10.70;92.00;;;;;;5091497;28;20214;-83
2024/01/04 11:50:22;;;;;;;14.17;3.67;;;10.80;92.30;;;;;;5091721;28;20171;-85
2024/01/04 11:52:48;;;;;;;11.77;3.83;;;10.70;92.90;;;;;;5091587;28;20675;-84
2024/01/04 11:55:25;;;;;;;18.53;4.90;;;10.70;92.60;;;;;;5092772;28;20220;-84
2024/01/04 11:58:24;;;;;;;16.20;4.43;;;10.80;93.30;;;;;;5091134;28;20732;-84
2024/01/04 12:00:51;;;;;;;16.20;3.50;;;10.90;91.80;;;;;;5092256;28;20237;-83
2024/01/04 12:03:20;;;;;;;14.80;4.33;;;10.90;91.00;;;;;;5091375;28;20171;-84
2024/01/04 12:05:51;;;;;;;19.27;4.47;;;11.00;89.60;;;;;;5091332;28;20187;-83
2024/01/04 12:08:30;;;;;;;16.40;3.80;;;11.00;86.20;;;;;;5092411;28;20241;-83
2024/01/04 12:11:03;;;;;;;18.63;4.60;;;11.00;85.40;;;;;;5091704;28;20240;-84
2024/01/04 12:13:30;;;;;;;14.03;3.83;;;11.00;84.30;;;;;;5091043;28;20248;-84
2024/01/04 12:15:55;;;;;;;20.47;4.17;;;11.00;84.50;;;;;;5091022;28;20176;-83
2024/01/04 12:18:21;;;;;;;16.93;4.13;;;11.10;85.60;;;;;;5095934;28;20647;-85
2024/01/04 12:20:47;;;;;;;16.70;3.80;;;11.00;88.20;;;;;;5095204;28;20264;-84
2024/01/04 12:23:13;;;;;;;17.87;4.23;;;11.10;89.60;;;;;;5095189;28;20605;-85
2024/01/04 12:25:44;;;;;;;15.30;3.93;;;11.10;86.80;;;;;;5105338;28;20196;-86
2024/01/04 12:28:10;;;;;;;14.60;4.17;;;11.00;88.40;;;;;;5086575;28;20265;-85
2024/01/04 12:30:40;;;;;;;17.83;4.13;;;11.00;90.60;;;;;;5095688;28;20199;-85
2024/01/04 12:33:08;;;;;;;18.60;4.00;;;11.00;91.80;;;;;;5095979;28;20180;-83
2024/01/04 12:35:34;;;;;;;14.43;3.60;;;11.00;91.30;;;;;;5095873;28;20171;-83
2024/01/04 12:38:01;;;;;;;15.73;4.00;;;10.90;90.80;;;;;;5095361;28;20229;-84
2024/01/04 12:40:27;;;;;;;15.00;3.90;;;11.00;90.50;;;;;;5094809;28;20229;-85